sensor_id;sensor_type;location;lat;lon;timestamp;P1;durP1;ratioP1;P2;durP2;ratioP2
17564;SDS011;62994;52.126;5.596;2023-10-13T00:01:48;15.45;;;12.63;;
17564;SDS011;62994;52.126;5.596;2023-10-13T00:04:21;17.85;;;12.70;;
17564;SDS011;62994;52.126;5.596;2023-10-13T00:06:56;15.93;;;13.38;;
17564;SDS011;62994;52.126;5.596;2023-10-13T00:09:24;15.90;;;11.90;;
17564;SDS011;62994;52.126;5.596;2023-10-13T00:11:57;14.80;;;12.68;;
17564;SDS011;62994;52.126;5.596;2023-10-13T00:14:28;14.85;;;12.07;;
17564;SDS011;62994;52.126;5.596;2023-10-13T00:16:59;13.45;;;12.15;;
17564;SDS011;62994;52.126;5.596;2023-10-13T00:19:48;13.48;;;11.15;;
17564;SDS011;62994;52.126;5.596;2023-10-13T00:22:17;12.48;;;11.40;;
17564;SDS011;62994;52.126;5.596;2023-10-13T00:24:51;16.02;;;12.18;;
17564;SDS011;62994;52.126;5.596;2023-10-13T00:27:23;12.38;;;11.27;;
17564;SDS011;62994;52.126;5.596;2023-10-13T00:30:04;12.23;;;10.75;;
17564;SDS011;62994;52.126;5.596;2023-10-13T00:32:47;11.95;;;11.05;;
17564;SDS011;62994;52.126;5.596;2023-10-13T00:35:29;13.02;;;11.88;;
17564;SDS011;62994;52.126;5.596;2023-10-13T00:38:07;17.42;;;12.13;;
17564;SDS011;62994;52.126;5.596;2023-10-13T00:40:45;12.35;;;11.25;;
17564;SDS011;62994;52.126;5.596;2023-10-13T00:43:18;12.68;;;11.38;;
17564;SDS011;62994;52.126;5.596;2023-10-13T00:46:05;12.98;;;11.77;;
17564;SDS011;62994;52.126;5.596;2023-10-13T00:48:41;11.73;;;10.82;;
17564;SDS011;62994;52.126;5.596;2023-10-13T00:51:22;13.32;;;12.00;;
17564;SDS011;62994;52.126;5.596;2023-10-13T00:54:01;15.30;;;12.02;;
17564;SDS011;62994;52.126;5.596;2023-10-13T00:56:37;12.85;;;11.75;;
17564;SDS011;62994;52.126;5.596;2023-10-13T00:59:12;13.30;;;12.00;;
17564;SDS011;62994;52.126;5.596;2023-10-13T01:01:40;15.15;;;12.30;;
17564;SDS011;62994;52.126;5.596;2023-10-13T01:04:23;15.15;;;12.60;;
17564;SDS011;62994;52.126;5.596;2023-10-13T01:06:53;13.52;;;12.30;;
17564;SDS011;62994;52.126;5.596;2023-10-13T01:09:25;14.60;;;13.27;;
17564;SDS011;62994;52.126;5.596;2023-10-13T01:11:57;14.43;;;13.02;;
17564;SDS011;62994;52.126;5.596;2023-10-13T01:14:28;16.42;;;13.65;;
17564;SDS011;62994;52.126;5.596;2023-10-13T01:16:56;14.40;;;13.00;;
17564;SDS011;62994;52.126;5.596;2023-10-13T01:19:35;18.25;;;13.23;;
17564;SDS011;62994;52.126;5.596;2023-10-13T01:22:07;18.40;;;14.63;;
17564;SDS011;62994;52.126;5.596;2023-10-13T01:24:38;14.13;;;12.23;;
17564;SDS011;62994;52.126;5.596;2023-10-13T01:27:14;17.20;;;15.43;;
17564;SDS011;62994;52.126;5.596;2023-10-13T01:29:45;14.77;;;13.40;;
17564;SDS011;62994;52.126;5.596;2023-10-13T01:32:16;14.70;;;13.38;;
17564;SDS011;62994;52.126;5.596;2023-10-13T01:34:46;14.05;;;12.75;;
17564;SDS011;62994;52.126;5.596;2023-10-13T01:37:14;13.95;;;12.65;;
17564;SDS011;62994;52.126;5.596;2023-10-13T01:39:46;15.02;;;13.73;;
17564;SDS011;62994;52.126;5.596;2023-10-13T01:42:18;13.90;;;12.63;;
17564;SDS011;62994;52.126;5.596;2023-10-13T01:44:49;13.88;;;12.60;;
17564;SDS011;62994;52.126;5.596;2023-10-13T01:47:30;13.50;;;12.30;;
17564;SDS011;62994;52.126;5.596;2023-10-13T01:49:58;14.20;;;12.80;;
17564;SDS011;62994;52.126;5.596;2023-10-13T01:52:32;13.98;;;12.55;;
17564;SDS011;62994;52.126;5.596;2023-10-13T01:55:00;13.10;;;11.93;;
17564;SDS011;62994;52.126;5.596;2023-10-13T01:57:36;14.23;;;12.82;;
17564;SDS011;62994;52.126;5.596;2023-10-13T02:00:08;14.27;;;12.88;;
17564;SDS011;62994;52.126;5.596;2023-10-13T02:02:44;13.93;;;12.70;;
17564;SDS011;62994;52.126;5.596;2023-10-13T02:05:15;13.20;;;11.90;;
17564;SDS011;62994;52.126;5.596;2023-10-13T02:07:42;12.50;;;11.40;;
17564;SDS011;62994;52.126;5.596;2023-10-13T02:10:21;11.48;;;10.63;;
17564;SDS011;62994;52.126;5.596;2023-10-13T02:12:52;11.95;;;10.82;;
17564;SDS011;62994;52.126;5.596;2023-10-13T02:15:20;12.60;;;10.70;;
17564;SDS011;62994;52.126;5.596;2023-10-13T02:17:51;10.07;;;9.15;;
17564;SDS011;62994;52.126;5.596;2023-10-13T02:20:24;10.77;;;9.75;;
17564;SDS011;62994;52.126;5.596;2023-10-13T02:22:58;10.15;;;9.45;;
17564;SDS011;62994;52.126;5.596;2023-10-13T02:25:27;11.25;;;10.13;;
17564;SDS011;62994;52.126;5.596;2023-10-13T02:28:00;13.02;;;9.52;;
17564;SDS011;62994;52.126;5.596;2023-10-13T02:30:36;10.45;;;9.50;;
17564;SDS011;62994;52.126;5.596;2023-10-13T02:33:11;10.77;;;9.77;;
17564;SDS011;62994;52.126;5.596;2023-10-13T02:35:38;9.25;;;8.73;;
17564;SDS011;62994;52.126;5.596;2023-10-13T02:38:08;9.23;;;8.57;;
17564;SDS011;62994;52.126;5.596;2023-10-13T02:40:44;9.90;;;9.10;;
17564;SDS011;62994;52.126;5.596;2023-10-13T02:43:19;9.77;;;8.90;;
17564;SDS011;62994;52.126;5.596;2023-10-13T02:45:58;9.18;;;8.48;;
17564;SDS011;62994;52.126;5.596;2023-10-13T02:48:25;9.30;;;8.63;;
17564;SDS011;62994;52.126;5.596;2023-10-13T02:51:05;9.40;;;8.60;;
17564;SDS011;62994;52.126;5.596;2023-10-13T02:53:42;10.48;;;8.90;;
17564;SDS011;62994;52.126;5.596;2023-10-13T02:56:13;9.50;;;8.70;;
17564;SDS011;62994;52.126;5.596;2023-10-13T02:58:48;10.50;;;9.68;;
17564;SDS011;62994;52.126;5.596;2023-10-13T03:01:23;10.30;;;8.07;;
17564;SDS011;62994;52.126;5.596;2023-10-13T03:03:54;9.85;;;9.05;;
17564;SDS011;62994;52.126;5.596;2023-10-13T03:06:23;9.93;;;9.23;;
17564;SDS011;62994;52.126;5.596;2023-10-13T03:09:00;9.10;;;8.32;;
17564;SDS011;62994;52.126;5.596;2023-10-13T03:11:43;9.27;;;8.57;;
17564;SDS011;62994;52.126;5.596;2023-10-13T03:14:15;9.75;;;8.32;;
17564;SDS011;62994;52.126;5.596;2023-10-13T03:16:51;8.60;;;7.90;;
17564;SDS011;62994;52.126;5.596;2023-10-13T03:19:18;8.18;;;7.68;;
17564;SDS011;62994;52.126;5.596;2023-10-13T03:21:47;10.38;;;8.27;;
17564;SDS011;62994;52.126;5.596;2023-10-13T03:24:20;11.60;;;8.25;;
17564;SDS011;62994;52.126;5.596;2023-10-13T03:26:59;8.05;;;7.22;;
17564;SDS011;62994;52.126;5.596;2023-10-13T03:29:34;7.20;;;6.60;;
17564;SDS011;62994;52.126;5.596;2023-10-13T03:32:07;7.88;;;7.28;;
17564;SDS011;62994;52.126;5.596;2023-10-13T03:34:37;7.25;;;6.60;;
17564;SDS011;62994;52.126;5.596;2023-10-13T03:37:17;9.10;;;7.10;;
17564;SDS011;62994;52.126;5.596;2023-10-13T03:40:03;7.60;;;6.90;;
17564;SDS011;62994;52.126;5.596;2023-10-13T03:42:42;7.28;;;6.40;;
17564;SDS011;62994;52.126;5.596;2023-10-13T03:45:28;6.50;;;6.00;;
17564;SDS011;62994;52.126;5.596;2023-10-13T03:48:03;6.57;;;5.97;;
17564;SDS011;62994;52.126;5.596;2023-10-13T03:50:35;8.10;;;6.25;;
17564;SDS011;62994;52.126;5.596;2023-10-13T03:53:11;8.15;;;6.28;;
17564;SDS011;62994;52.126;5.596;2023-10-13T03:55:40;6.60;;;6.00;;
17564;SDS011;62994;52.126;5.596;2023-10-13T03:58:14;6.97;;;6.38;;
17564;SDS011;62994;52.126;5.596;2023-10-13T04:00:45;6.85;;;6.20;;
17564;SDS011;62994;52.126;5.596;2023-10-13T04:03:16;6.88;;;6.18;;
17564;SDS011;62994;52.126;5.596;2023-10-13T04:05:58;7.63;;;6.38;;
17564;SDS011;62994;52.126;5.596;2023-10-13T04:08:41;6.40;;;5.80;;
17564;SDS011;62994;52.126;5.596;2023-10-13T04:11:34;6.63;;;6.07;;
17564;SDS011;62994;52.126;5.596;2023-10-13T04:14:41;6.50;;;5.93;;
17564;SDS011;62994;52.126;5.596;2023-10-13T04:17:26;6.32;;;5.72;;
17564;SDS011;62994;52.126;5.596;2023-10-13T04:20:07;7.05;;;5.80;;
17564;SDS011;62994;52.126;5.596;2023-10-13T04:22:59;6.93;;;5.85;;
17564;SDS011;62994;52.126;5.596;2023-10-13T04:25:51;7.03;;;5.72;;
17564;SDS011;62994;52.126;5.596;2023-10-13T04:28:30;5.80;;;5.38;;
17564;SDS011;62994;52.126;5.596;2023-10-13T04:31:17;7.13;;;6.50;;
17564;SDS011;62994;52.126;5.596;2023-10-13T04:34:18;6.22;;;5.93;;
17564;SDS011;62994;52.126;5.596;2023-10-13T04:36:53;6.68;;;6.28;;
17564;SDS011;62994;52.126;5.596;2023-10-13T04:39:38;6.93;;;6.25;;
17564;SDS011;62994;52.126;5.596;2023-10-13T04:42:22;6.85;;;6.28;;
17564;SDS011;62994;52.126;5.596;2023-10-13T04:45:05;6.38;;;5.78;;
17564;SDS011;62994;52.126;5.596;2023-10-13T04:48:05;7.07;;;5.97;;
17564;SDS011;62994;52.126;5.596;2023-10-13T04:51:03;6.22;;;5.80;;
17564;SDS011;62994;52.126;5.596;2023-10-13T04:53:48;5.97;;;5.47;;
17564;SDS011;62994;52.126;5.596;2023-10-13T04:56:36;6.45;;;5.85;;
17564;SDS011;62994;52.126;5.596;2023-10-13T04:59:23;6.05;;;5.65;;
17564;SDS011;62994;52.126;5.596;2023-10-13T05:02:18;6.57;;;6.05;;
17564;SDS011;62994;52.126;5.596;2023-10-13T05:05:14;7.53;;;6.40;;
17564;SDS011;62994;52.126;5.596;2023-10-13T05:07:59;7.38;;;6.50;;
17564;SDS011;62994;52.126;5.596;2023-10-13T05:10:45;6.50;;;6.00;;
17564;SDS011;62994;52.126;5.596;2023-10-13T05:13:30;6.55;;;6.15;;
17564;SDS011;62994;52.126;5.596;2023-10-13T05:16:19;6.78;;;6.40;;
17564;SDS011;62994;52.126;5.596;2023-10-13T05:19:06;8.07;;;7.45;;
17564;SDS011;62994;52.126;5.596;2023-10-13T05:21:52;6.80;;;6.40;;
17564;SDS011;62994;52.126;5.596;2023-10-13T05:24:40;7.88;;;7.25;;
17564;SDS011;62994;52.126;5.596;2023-10-13T05:27:47;9.75;;;7.10;;
17564;SDS011;62994;52.126;5.596;2023-10-13T05:30:32;9.00;;;8.20;;
17564;SDS011;62994;52.126;5.596;2023-10-13T05:37:10;9.30;;;8.68;;
17564;SDS011;62994;52.126;5.596;2023-10-13T05:40:03;9.20;;;8.50;;
17564;SDS011;62994;52.126;5.596;2023-10-13T05:42:50;10.50;;;8.30;;
17564;SDS011;62994;52.126;5.596;2023-10-13T05:45:37;9.10;;;6.88;;
17564;SDS011;62994;52.126;5.596;2023-10-13T05:48:23;6.72;;;6.13;;
17564;SDS011;62994;52.126;5.596;2023-10-13T05:51:09;7.38;;;6.75;;
17564;SDS011;62994;52.126;5.596;2023-10-13T05:54:00;7.57;;;6.75;;
17564;SDS011;62994;52.126;5.596;2023-10-13T05:56:47;7.53;;;6.90;;
17564;SDS011;62994;52.126;5.596;2023-10-13T05:59:36;7.55;;;6.50;;
17564;SDS011;62994;52.126;5.596;2023-10-13T06:02:22;8.50;;;6.68;;
17564;SDS011;62994;52.126;5.596;2023-10-13T06:05:10;11.43;;;6.07;;
17564;SDS011;62994;52.126;5.596;2023-10-13T06:07:56;6.43;;;5.82;;
17564;SDS011;62994;52.126;5.596;2023-10-13T06:11:00;7.03;;;6.32;;
17564;SDS011;62994;52.126;5.596;2023-10-13T06:13:47;10.82;;;6.25;;
17564;SDS011;62994;52.126;5.596;2023-10-13T06:16:34;7.15;;;6.43;;
17564;SDS011;62994;52.126;5.596;2023-10-13T06:19:19;12.93;;;5.50;;
17564;SDS011;62994;52.126;5.596;2023-10-13T06:22:07;8.55;;;6.63;;
17564;SDS011;62994;52.126;5.596;2023-10-13T06:28:38;10.40;;;6.38;;
17564;SDS011;62994;52.126;5.596;2023-10-13T06:31:09;6.60;;;6.07;;
17564;SDS011;62994;52.126;5.596;2023-10-13T06:33:46;7.75;;;6.65;;
17564;SDS011;62994;52.126;5.596;2023-10-13T06:36:16;7.35;;;6.32;;
17564;SDS011;62994;52.126;5.596;2023-10-13T06:38:44;7.35;;;6.43;;
17564;SDS011;62994;52.126;5.596;2023-10-13T06:41:20;6.13;;;5.50;;
17564;SDS011;62994;52.126;5.596;2023-10-13T06:43:59;7.53;;;5.82;;
17564;SDS011;62994;52.126;5.596;2023-10-13T06:46:32;8.30;;;6.10;;
17564;SDS011;62994;52.126;5.596;2023-10-13T06:49:05;6.82;;;6.00;;
17564;SDS011;62994;52.126;5.596;2023-10-13T06:51:50;6.07;;;5.68;;
17564;SDS011;62994;52.126;5.596;2023-10-13T06:54:25;11.07;;;6.00;;
17564;SDS011;62994;52.126;5.596;2023-10-13T06:56:54;6.78;;;6.28;;
17564;SDS011;62994;52.126;5.596;2023-10-13T06:59:24;8.77;;;6.80;;
17564;SDS011;62994;52.126;5.596;2023-10-13T07:02:00;12.65;;;6.82;;
17564;SDS011;62994;52.126;5.596;2023-10-13T07:04:31;7.22;;;6.70;;
17564;SDS011;62994;52.126;5.596;2023-10-13T07:07:06;6.60;;;6.10;;
17564;SDS011;62994;52.126;5.596;2023-10-13T07:09:35;7.10;;;6.63;;
17564;SDS011;62994;52.126;5.596;2023-10-13T07:12:20;6.88;;;6.32;;
17564;SDS011;62994;52.126;5.596;2023-10-13T07:15:06;7.40;;;6.80;;
17564;SDS011;62994;52.126;5.596;2023-10-13T07:17:44;10.32;;;7.05;;
17564;SDS011;62994;52.126;5.596;2023-10-13T07:20:24;7.70;;;7.00;;
17564;SDS011;62994;52.126;5.596;2023-10-13T07:22:59;8.50;;;7.32;;
17564;SDS011;62994;52.126;5.596;2023-10-13T07:25:35;7.20;;;6.28;;
17564;SDS011;62994;52.126;5.596;2023-10-13T07:28:12;7.05;;;6.55;;
17564;SDS011;62994;52.126;5.596;2023-10-13T07:30:42;6.90;;;6.25;;
17564;SDS011;62994;52.126;5.596;2023-10-13T07:33:14;6.43;;;5.95;;
17564;SDS011;62994;52.126;5.596;2023-10-13T07:35:45;9.95;;;6.70;;
17564;SDS011;62994;52.126;5.596;2023-10-13T07:38:16;7.93;;;6.78;;
17564;SDS011;62994;52.126;5.596;2023-10-13T07:40:53;6.38;;;5.80;;
17564;SDS011;62994;52.126;5.596;2023-10-13T07:43:37;6.40;;;5.90;;
17564;SDS011;62994;52.126;5.596;2023-10-13T07:46:06;9.32;;;5.95;;
17564;SDS011;62994;52.126;5.596;2023-10-13T07:48:36;7.22;;;6.32;;
17564;SDS011;62994;52.126;5.596;2023-10-13T07:51:04;7.03;;;6.10;;
17564;SDS011;62994;52.126;5.596;2023-10-13T07:53:36;7.57;;;5.68;;
17564;SDS011;62994;52.126;5.596;2023-10-13T07:56:06;7.20;;;6.43;;
17564;SDS011;62994;52.126;5.596;2023-10-13T07:58:47;7.82;;;5.72;;
17564;SDS011;62994;52.126;5.596;2023-10-13T08:01:19;6.80;;;5.60;;
17564;SDS011;62994;52.126;5.596;2023-10-13T08:03:52;6.53;;;5.97;;
17564;SDS011;62994;52.126;5.596;2023-10-13T08:06:36;10.25;;;5.97;;
17564;SDS011;62994;52.126;5.596;2023-10-13T08:09:08;11.73;;;5.60;;
17564;SDS011;62994;52.126;5.596;2023-10-13T08:11:53;8.98;;;5.80;;
17564;SDS011;62994;52.126;5.596;2023-10-13T08:14:24;8.23;;;5.80;;
17564;SDS011;62994;52.126;5.596;2023-10-13T08:19:56;13.73;;;5.28;;
17564;SDS011;62994;52.126;5.596;2023-10-13T08:22:36;8.50;;;6.00;;
17564;SDS011;62994;52.126;5.596;2023-10-13T08:25:15;13.00;;;5.68;;
17564;SDS011;62994;52.126;5.596;2023-10-13T08:28:11;12.57;;;5.93;;
17564;SDS011;62994;52.126;5.596;2023-10-13T08:30:56;9.65;;;5.30;;
17564;SDS011;62994;52.126;5.596;2023-10-13T08:33:42;13.60;;;5.00;;
17564;SDS011;62994;52.126;5.596;2023-10-13T08:36:12;7.93;;;5.03;;
17564;SDS011;62994;52.126;5.596;2023-10-13T08:38:54;6.95;;;4.78;;
17564;SDS011;62994;52.126;5.596;2023-10-13T08:41:24;10.93;;;5.78;;
17564;SDS011;62994;52.126;5.596;2023-10-13T08:43:54;5.43;;;4.82;;
17564;SDS011;62994;52.126;5.596;2023-10-13T08:46:34;12.55;;;4.65;;
17564;SDS011;62994;52.126;5.596;2023-10-13T08:49:30;5.90;;;4.20;;
17564;SDS011;62994;52.126;5.596;2023-10-13T08:52:09;4.72;;;4.32;;
17564;SDS011;62994;52.126;5.596;2023-10-13T08:54:57;11.70;;;4.68;;
17564;SDS011;62994;52.126;5.596;2023-10-13T08:58:06;5.82;;;4.47;;
17564;SDS011;62994;52.126;5.596;2023-10-13T09:00:46;6.15;;;4.55;;
17564;SDS011;62994;52.126;5.596;2023-10-13T09:03:40;12.25;;;4.90;;
17564;SDS011;62994;52.126;5.596;2023-10-13T09:06:12;9.40;;;4.80;;
17564;SDS011;62994;52.126;5.596;2023-10-13T09:08:45;9.40;;;5.30;;
17564;SDS011;62994;52.126;5.596;2023-10-13T09:11:33;10.35;;;4.80;;
17564;SDS011;62994;52.126;5.596;2023-10-13T09:14:16;7.53;;;4.55;;
17564;SDS011;62994;52.126;5.596;2023-10-13T09:17:05;6.00;;;4.40;;
17564;SDS011;62994;52.126;5.596;2023-10-13T09:19:59;10.98;;;4.88;;
17564;SDS011;62994;52.126;5.596;2023-10-13T09:22:46;6.15;;;4.45;;
17564;SDS011;62994;52.126;5.596;2023-10-13T09:25:21;8.48;;;4.32;;
17564;SDS011;62994;52.126;5.596;2023-10-13T09:27:51;12.82;;;4.85;;
17564;SDS011;62994;52.126;5.596;2023-10-13T09:30:30;7.60;;;4.85;;
17564;SDS011;62994;52.126;5.596;2023-10-13T09:33:03;12.43;;;4.93;;
17564;SDS011;62994;52.126;5.596;2023-10-13T09:35:33;12.23;;;4.63;;
17564;SDS011;62994;52.126;5.596;2023-10-13T09:38:03;7.38;;;4.90;;
17564;SDS011;62994;52.126;5.596;2023-10-13T09:40:35;7.68;;;4.45;;
17564;SDS011;62994;52.126;5.596;2023-10-13T09:43:11;9.77;;;4.80;;
17564;SDS011;62994;52.126;5.596;2023-10-13T09:45:50;10.68;;;5.65;;
17564;SDS011;62994;52.126;5.596;2023-10-13T09:48:44;9.07;;;5.75;;
17564;SDS011;62994;52.126;5.596;2023-10-13T09:51:34;6.88;;;5.00;;
17564;SDS011;62994;52.126;5.596;2023-10-13T09:54:03;10.23;;;4.70;;
17564;SDS011;62994;52.126;5.596;2023-10-13T09:56:37;10.27;;;4.95;;
17564;SDS011;62994;52.126;5.596;2023-10-13T09:59:17;13.35;;;4.85;;
17564;SDS011;62994;52.126;5.596;2023-10-13T10:01:50;10.48;;;4.60;;
17564;SDS011;62994;52.126;5.596;2023-10-13T10:04:24;13.55;;;4.93;;
17564;SDS011;62994;52.126;5.596;2023-10-13T10:07:23;7.57;;;4.63;;
17564;SDS011;62994;52.126;5.596;2023-10-13T10:09:58;11.10;;;4.88;;
17564;SDS011;62994;52.126;5.596;2023-10-13T10:12:31;11.35;;;5.05;;
17564;SDS011;62994;52.126;5.596;2023-10-13T10:15:22;10.90;;;5.20;;
17564;SDS011;62994;52.126;5.596;2023-10-13T10:17:59;5.65;;;4.53;;
17564;SDS011;62994;52.126;5.596;2023-10-13T10:20:32;12.68;;;5.65;;
17564;SDS011;62994;52.126;5.596;2023-10-13T10:24:40;9.60;;;4.50;;
17564;SDS011;62994;52.126;5.596;2023-10-13T10:30:09;11.50;;;4.70;;
17564;SDS011;62994;52.126;5.596;2023-10-13T10:32:38;12.57;;;5.38;;
17564;SDS011;62994;52.126;5.596;2023-10-13T10:35:07;5.15;;;4.68;;
17564;SDS011;62994;52.126;5.596;2023-10-13T10:37:42;5.10;;;4.60;;
17564;SDS011;62994;52.126;5.596;2023-10-13T10:40:16;9.35;;;5.25;;
17564;SDS011;62994;52.126;5.596;2023-10-13T10:42:58;11.38;;;4.88;;
17564;SDS011;62994;52.126;5.596;2023-10-13T10:45:37;10.55;;;5.07;;
17564;SDS011;62994;52.126;5.596;2023-10-13T10:48:13;9.73;;;4.75;;
17564;SDS011;62994;52.126;5.596;2023-10-13T10:50:43;7.43;;;5.38;;
17564;SDS011;62994;52.126;5.596;2023-10-13T10:53:14;13.73;;;5.07;;
17564;SDS011;62994;52.126;5.596;2023-10-13T10:55:42;10.93;;;5.60;;
17564;SDS011;62994;52.126;5.596;2023-10-13T10:58:12;16.13;;;5.30;;
17564;SDS011;62994;52.126;5.596;2023-10-13T11:01:08;7.95;;;4.70;;
17564;SDS011;62994;52.126;5.596;2023-10-13T11:03:55;10.02;;;5.50;;
17564;SDS011;62994;52.126;5.596;2023-10-13T11:06:44;11.15;;;5.10;;
17564;SDS011;62994;52.126;5.596;2023-10-13T11:09:14;13.23;;;4.72;;
17564;SDS011;62994;52.126;5.596;2023-10-13T11:12:14;9.82;;;5.40;;
17564;SDS011;62994;52.126;5.596;2023-10-13T11:15:03;8.07;;;5.35;;
17564;SDS011;62994;52.126;5.596;2023-10-13T11:17:47;13.20;;;5.18;;
17564;SDS011;62994;52.126;5.596;2023-10-13T11:20:26;11.75;;;5.25;;
17564;SDS011;62994;52.126;5.596;2023-10-13T11:23:10;9.20;;;4.72;;
17564;SDS011;62994;52.126;5.596;2023-10-13T11:25:59;17.40;;;5.20;;
17564;SDS011;62994;52.126;5.596;2023-10-13T11:28:37;7.47;;;5.40;;
17564;SDS011;62994;52.126;5.596;2023-10-13T11:31:18;11.45;;;5.25;;
17564;SDS011;62994;52.126;5.596;2023-10-13T11:33:51;11.50;;;5.00;;
17564;SDS011;62994;52.126;5.596;2023-10-13T11:36:28;8.85;;;5.05;;
17564;SDS011;62994;52.126;5.596;2023-10-13T11:39:13;16.48;;;5.53;;
17564;SDS011;62994;52.126;5.596;2023-10-13T11:42:18;13.88;;;5.20;;
17564;SDS011;62994;52.126;5.596;2023-10-13T11:45:01;9.73;;;5.20;;
17564;SDS011;62994;52.126;5.596;2023-10-13T11:47:49;9.57;;;5.03;;
17564;SDS011;62994;52.126;5.596;2023-10-13T11:50:25;10.35;;;4.90;;
17564;SDS011;62994;52.126;5.596;2023-10-13T11:52:59;11.20;;;5.03;;
17564;SDS011;62994;52.126;5.596;2023-10-13T11:55:26;9.32;;;5.30;;
17564;SDS011;62994;52.126;5.596;2023-10-13T11:57:53;12.07;;;4.95;;
17564;SDS011;62994;52.126;5.596;2023-10-13T12:00:24;14.25;;;5.93;;
17564;SDS011;62994;52.126;5.596;2023-10-13T12:03:12;13.48;;;5.10;;
17564;SDS011;62994;52.126;5.596;2023-10-13T12:05:58;8.90;;;4.93;;
17564;SDS011;62994;52.126;5.596;2023-10-13T12:08:39;15.43;;;6.15;;
17564;SDS011;62994;52.126;5.596;2023-10-13T12:11:14;8.38;;;5.50;;
17564;SDS011;62994;52.126;5.596;2023-10-13T12:13:55;19.02;;;5.40;;
17564;SDS011;62994;52.126;5.596;2023-10-13T12:16:22;11.95;;;5.65;;
17564;SDS011;62994;52.126;5.596;2023-10-13T12:18:59;8.32;;;5.25;;
17564;SDS011;62994;52.126;5.596;2023-10-13T12:21:27;11.82;;;5.68;;
17564;SDS011;62994;52.126;5.596;2023-10-13T12:23:55;10.00;;;5.45;;
17564;SDS011;62994;52.126;5.596;2023-10-13T12:26:22;14.35;;;6.18;;
17564;SDS011;62994;52.126;5.596;2023-10-13T12:28:57;9.68;;;5.57;;
17564;SDS011;62994;52.126;5.596;2023-10-13T12:31:31;9.55;;;4.95;;
17564;SDS011;62994;52.126;5.596;2023-10-13T12:34:04;8.77;;;5.10;;
17564;SDS011;62994;52.126;5.596;2023-10-13T12:36:40;6.55;;;5.30;;
17564;SDS011;62994;52.126;5.596;2023-10-13T12:39:18;21.85;;;5.70;;
17564;SDS011;62994;52.126;5.596;2023-10-13T12:42:02;9.70;;;5.47;;
17564;SDS011;62994;52.126;5.596;2023-10-13T12:44:47;10.55;;;5.03;;
17564;SDS011;62994;52.126;5.596;2023-10-13T12:47:31;8.25;;;5.07;;
17564;SDS011;62994;52.126;5.596;2023-10-13T12:50:16;8.57;;;5.45;;
17564;SDS011;62994;52.126;5.596;2023-10-13T12:53:01;10.10;;;5.50;;
17564;SDS011;62994;52.126;5.596;2023-10-13T12:55:28;18.20;;;6.13;;
17564;SDS011;62994;52.126;5.596;2023-10-13T12:57:55;8.57;;;5.75;;
17564;SDS011;62994;52.126;5.596;2023-10-13T13:00:21;21.00;;;5.70;;
17564;SDS011;62994;52.126;5.596;2023-10-13T13:02:58;12.52;;;5.82;;
17564;SDS011;62994;52.126;5.596;2023-10-13T13:05:25;13.95;;;6.30;;
17564;SDS011;62994;52.126;5.596;2023-10-13T13:07:56;13.20;;;5.57;;
17564;SDS011;62994;52.126;5.596;2023-10-13T13:10:24;13.88;;;5.47;;
17564;SDS011;62994;52.126;5.596;2023-10-13T13:13:04;7.03;;;5.38;;
17564;SDS011;62994;52.126;5.596;2023-10-13T13:15:31;14.18;;;5.65;;
17564;SDS011;62994;52.126;5.596;2023-10-13T13:17:58;9.23;;;5.65;;
17564;SDS011;62994;52.126;5.596;2023-10-13T13:20:35;9.90;;;6.10;;
17564;SDS011;62994;52.126;5.596;2023-10-13T13:23:04;6.57;;;5.72;;
17564;SDS011;62994;52.126;5.596;2023-10-13T13:25:33;12.90;;;5.93;;
17564;SDS011;62994;52.126;5.596;2023-10-13T13:28:07;9.63;;;5.65;;
17564;SDS011;62994;52.126;5.596;2023-10-13T13:30:35;15.48;;;5.78;;
17564;SDS011;62994;52.126;5.596;2023-10-13T13:33:02;8.55;;;6.00;;
17564;SDS011;62994;52.126;5.596;2023-10-13T13:35:36;16.17;;;6.03;;
17564;SDS011;62994;52.126;5.596;2023-10-13T13:38:03;17.85;;;7.07;;
17564;SDS011;62994;52.126;5.596;2023-10-13T13:40:37;8.93;;;6.88;;
17564;SDS011;62994;52.126;5.596;2023-10-13T13:43:05;18.55;;;6.03;;
17564;SDS011;62994;52.126;5.596;2023-10-13T13:45:32;6.32;;;5.60;;
17564;SDS011;62994;52.126;5.596;2023-10-13T13:48:00;16.30;;;6.07;;
17564;SDS011;62994;52.126;5.596;2023-10-13T13:50:32;12.95;;;6.22;;
17564;SDS011;62994;52.126;5.596;2023-10-13T13:53:06;14.48;;;6.45;;
17564;SDS011;62994;52.126;5.596;2023-10-13T13:55:35;9.82;;;6.13;;
17564;SDS011;62994;52.126;5.596;2023-10-13T13:58:06;13.65;;;6.22;;
17564;SDS011;62994;52.126;5.596;2023-10-13T14:00:34;12.35;;;6.05;;
17564;SDS011;62994;52.126;5.596;2023-10-13T14:03:04;16.48;;;6.82;;
17564;SDS011;62994;52.126;5.596;2023-10-13T14:05:40;16.17;;;6.28;;
17564;SDS011;62994;52.126;5.596;2023-10-13T14:08:07;11.57;;;6.25;;
17564;SDS011;62994;52.126;5.596;2023-10-13T14:10:36;12.13;;;6.35;;
17564;SDS011;62994;52.126;5.596;2023-10-13T14:13:33;17.42;;;6.70;;
17564;SDS011;62994;52.126;5.596;2023-10-13T14:16:12;13.57;;;6.63;;
17564;SDS011;62994;52.126;5.596;2023-10-13T14:18:43;10.00;;;5.80;;
17564;SDS011;62994;52.126;5.596;2023-10-13T14:21:11;13.90;;;5.90;;
17564;SDS011;62994;52.126;5.596;2023-10-13T14:23:42;9.30;;;6.20;;
17564;SDS011;62994;52.126;5.596;2023-10-13T14:26:11;16.98;;;6.50;;
17564;SDS011;62994;52.126;5.596;2023-10-13T14:28:40;11.68;;;6.10;;
17564;SDS011;62994;52.126;5.596;2023-10-13T14:31:17;12.90;;;6.72;;
17564;SDS011;62994;52.126;5.596;2023-10-13T14:33:45;10.02;;;5.72;;
17564;SDS011;62994;52.126;5.596;2023-10-13T14:36:12;10.32;;;6.15;;
17564;SDS011;62994;52.126;5.596;2023-10-13T14:38:45;11.07;;;6.22;;
17564;SDS011;62994;52.126;5.596;2023-10-13T14:41:14;12.05;;;5.78;;
17564;SDS011;62994;52.126;5.596;2023-10-13T14:43:45;11.85;;;5.80;;
17564;SDS011;62994;52.126;5.596;2023-10-13T14:46:14;12.05;;;6.47;;
17564;SDS011;62994;52.126;5.596;2023-10-13T14:48:41;13.40;;;5.63;;
17564;SDS011;62994;52.126;5.596;2023-10-13T14:51:09;9.10;;;5.13;;
17564;SDS011;62994;52.126;5.596;2023-10-13T14:53:38;7.57;;;5.32;;
17564;SDS011;62994;52.126;5.596;2023-10-13T14:56:09;16.38;;;6.45;;
17564;SDS011;62994;52.126;5.596;2023-10-13T14:58:36;10.02;;;5.38;;
17564;SDS011;62994;52.126;5.596;2023-10-13T15:01:15;14.93;;;5.60;;
17564;SDS011;62994;52.126;5.596;2023-10-13T15:03:43;12.50;;;6.15;;
17564;SDS011;62994;52.126;5.596;2023-10-13T15:06:16;10.48;;;5.55;;
17564;SDS011;62994;52.126;5.596;2023-10-13T15:08:45;9.93;;;5.38;;
17564;SDS011;62994;52.126;5.596;2023-10-13T15:11:14;13.43;;;5.75;;
17564;SDS011;62994;52.126;5.596;2023-10-13T15:13:45;7.07;;;5.20;;
17564;SDS011;62994;52.126;5.596;2023-10-13T15:16:15;8.73;;;5.35;;
17564;SDS011;62994;52.126;5.596;2023-10-13T15:18:43;12.75;;;5.80;;
17564;SDS011;62994;52.126;5.596;2023-10-13T15:21:11;7.90;;;5.53;;
17564;SDS011;62994;52.126;5.596;2023-10-13T15:23:44;14.35;;;5.78;;
17564;SDS011;62994;52.126;5.596;2023-10-13T15:26:11;14.18;;;6.28;;
17564;SDS011;62994;52.126;5.596;2023-10-13T15:28:39;11.93;;;6.18;;
17564;SDS011;62994;52.126;5.596;2023-10-13T15:31:13;15.13;;;6.30;;
17564;SDS011;62994;52.126;5.596;2023-10-13T15:33:51;11.25;;;6.55;;
17564;SDS011;62994;52.126;5.596;2023-10-13T15:36:20;12.80;;;6.90;;
17564;SDS011;62994;52.126;5.596;2023-10-13T15:38:48;15.48;;;6.22;;
17564;SDS011;62994;52.126;5.596;2023-10-13T15:41:21;16.00;;;6.65;;
17564;SDS011;62994;52.126;5.596;2023-10-13T15:43:49;26.98;;;6.95;;
17564;SDS011;62994;52.126;5.596;2023-10-13T15:46:17;13.82;;;7.07;;
17564;SDS011;62994;52.126;5.596;2023-10-13T15:48:47;19.35;;;7.07;;
17564;SDS011;62994;52.126;5.596;2023-10-13T15:51:14;12.27;;;6.68;;